createdAt,value
2022-12-03T00:00:12.470Z,13.18
2022-12-03T00:02:41.545Z,12.95
2022-12-03T00:05:09.680Z,13.20
2022-12-03T00:07:37.170Z,12.75
2022-12-03T00:10:05.685Z,12.60
2022-12-03T00:12:33.121Z,12.30
2022-12-03T00:15:00.596Z,12.93
2022-12-03T00:17:28.031Z,12.25
2022-12-03T00:19:55.463Z,12.48
2022-12-03T00:22:22.915Z,12.57
2022-12-03T00:24:50.608Z,11.70
2022-12-03T00:27:18.140Z,12.45
2022-12-03T00:29:45.901Z,12.07
2022-12-03T00:32:14.166Z,12.20
2022-12-03T00:34:41.588Z,12.25
2022-12-03T00:37:09.175Z,12.63
2022-12-03T00:39:36.661Z,12.80
2022-12-03T00:42:04.361Z,12.25
2022-12-03T00:44:31.826Z,12.43
2022-12-03T00:46:59.351Z,12.23
2022-12-03T00:49:26.874Z,12.65
2022-12-03T00:51:54.373Z,11.77
2022-12-03T00:54:25.548Z,11.68
2022-12-03T00:56:56.016Z,12.85
2022-12-03T00:59:23.422Z,11.82
2022-12-03T01:01:50.956Z,12.05
2022-12-03T01:04:19.520Z,11.65
2022-12-03T01:06:47.463Z,12.10
2022-12-03T01:09:15.434Z,12.63
2022-12-03T01:11:42.840Z,12.25
2022-12-03T01:14:13.615Z,11.73
2022-12-03T01:16:41.843Z,11.52
2022-12-03T01:19:10.882Z,12.23
2022-12-03T01:21:38.313Z,11.00
2022-12-03T01:24:05.997Z,12.02
2022-12-03T01:26:33.485Z,11.15
2022-12-03T01:29:00.928Z,11.68
2022-12-03T01:31:47.054Z,11.15
2022-12-03T01:34:14.541Z,11.15
2022-12-03T01:36:42.082Z,11.90
2022-12-03T01:39:09.546Z,11.57
2022-12-03T01:41:37.308Z,11.40
2022-12-03T01:44:23.319Z,11.55
2022-12-03T01:46:52.679Z,11.73
2022-12-03T01:49:24.920Z,11.07
2022-12-03T01:51:53.792Z,11.63
2022-12-03T01:54:40.416Z,10.82
2022-12-03T01:57:26.558Z,11.38
2022-12-03T01:59:56.471Z,11.18
2022-12-03T02:02:29.311Z,11.20
2022-12-03T02:04:57.854Z,11.35
2022-12-03T02:07:31.748Z,11.35
2022-12-03T02:10:02.854Z,11.30
2022-12-03T02:12:38.406Z,10.80
2022-12-03T02:15:07.298Z,10.95
2022-12-03T02:17:34.880Z,11.07
2022-12-03T02:20:07.843Z,11.25
2022-12-03T02:22:43.622Z,11.38
2022-12-03T02:25:23.280Z,11.07
2022-12-03T02:27:53.060Z,11.10
2022-12-03T02:30:22.800Z,10.93
2022-12-03T02:32:51.799Z,10.75
2022-12-03T02:35:30.331Z,11.00
2022-12-03T02:38:04.022Z,10.40
2022-12-03T02:40:33.301Z,10.60
2022-12-03T02:43:03.831Z,10.00
2022-12-03T02:45:36.269Z,10.35
2022-12-03T02:48:08.629Z,10.00
2022-12-03T02:50:39.508Z,10.68
2022-12-03T02:53:17.440Z,11.25
2022-12-03T02:55:46.224Z,10.55
2022-12-03T02:58:15.082Z,10.13
2022-12-03T03:00:44.006Z,10.90
2022-12-03T03:03:12.388Z,10.07
2022-12-03T03:05:41.481Z,10.10
2022-12-03T03:08:10.733Z,10.75
2022-12-03T03:10:40.592Z,10.40
2022-12-03T03:13:11.632Z,10.63
2022-12-03T03:15:40.589Z,10.30
2022-12-03T03:18:09.226Z,10.43
2022-12-03T03:20:37.364Z,10.48
2022-12-03T03:23:18.510Z,10.50
2022-12-03T03:25:50.668Z,10.88
2022-12-03T03:28:20.645Z,10.40
2022-12-03T03:30:48.906Z,10.23
2022-12-03T03:33:16.896Z,10.35
2022-12-03T03:35:46.359Z,10.18
2022-12-03T03:38:15.036Z,10.35
2022-12-03T03:40:42.965Z,10.38
2022-12-03T03:43:12.053Z,9.65
2022-12-03T03:45:39.727Z,9.93
2022-12-03T03:48:07.542Z,10.05
2022-12-03T03:50:35.498Z,9.60
2022-12-03T03:53:04.314Z,9.52
2022-12-03T03:55:32.428Z,8.77
2022-12-03T03:58:00.169Z,9.30
2022-12-03T04:00:27.796Z,9.52
2022-12-03T04:02:55.247Z,9.23
2022-12-03T04:05:24.065Z,8.77
2022-12-03T04:07:51.704Z,9.10
2022-12-03T04:10:37.848Z,9.02
2022-12-03T04:13:05.792Z,8.90
2022-12-03T04:15:33.220Z,8.70
2022-12-03T04:18:19.721Z,8.38
2022-12-03T04:20:47.201Z,8.63
2022-12-03T04:23:14.699Z,8.70
2022-12-03T04:26:20.860Z,8.57
2022-12-03T04:28:51.048Z,9.02
2022-12-03T04:31:37.236Z,9.25
2022-12-03T04:34:23.756Z,8.95
2022-12-03T04:36:51.279Z,9.03
2022-12-03T04:39:18.716Z,8.60
2022-12-03T04:41:46.198Z,8.95
2022-12-03T04:44:32.352Z,8.85
2022-12-03T04:47:03.685Z,8.80
2022-12-03T04:49:31.624Z,8.23
2022-12-03T04:51:59.220Z,9.00
2022-12-03T04:54:27.759Z,9.38
2022-12-03T04:56:55.220Z,8.85
2022-12-03T04:59:22.784Z,7.88
2022-12-03T05:01:50.515Z,8.40
2022-12-03T05:04:18.097Z,8.50
2022-12-03T05:06:45.831Z,8.07
2022-12-03T05:09:14.171Z,7.78
2022-12-03T05:11:42.130Z,8.02
2022-12-03T05:14:10.484Z,8.02
2022-12-03T05:16:38.804Z,8.50
2022-12-03T05:19:07.985Z,8.07
2022-12-03T05:21:35.711Z,8.27
2022-12-03T05:24:03.296Z,8.43
2022-12-03T05:26:30.724Z,7.93
2022-12-03T05:28:58.189Z,8.27
2022-12-03T05:31:25.851Z,8.60
2022-12-03T05:33:54.725Z,8.90
2022-12-03T05:36:22.291Z,8.90
2022-12-03T05:38:49.816Z,8.18
2022-12-03T05:41:36.026Z,9.20
2022-12-03T05:44:03.497Z,8.65
2022-12-03T05:46:31.407Z,8.45
2022-12-03T05:48:58.925Z,8.38
2022-12-03T05:51:26.352Z,8.50
2022-12-03T05:53:53.870Z,8.93
2022-12-03T05:56:21.593Z,8.65
2022-12-03T05:58:49.831Z,8.57
2022-12-03T06:01:17.372Z,8.50
2022-12-03T06:03:45.000Z,8.20
2022-12-03T06:06:12.607Z,8.15
2022-12-03T06:08:40.176Z,8.40
2022-12-03T06:11:07.670Z,8.30
2022-12-03T06:13:35.117Z,8.57
2022-12-03T06:16:02.720Z,8.32
2022-12-03T06:18:30.267Z,8.73
2022-12-03T06:20:57.727Z,9.10
2022-12-03T06:23:25.256Z,9.10
2022-12-03T06:25:52.708Z,8.52
2022-12-03T06:28:20.116Z,8.30
2022-12-03T06:30:47.593Z,8.82
2022-12-03T06:33:15.074Z,9.50
2022-12-03T06:35:42.598Z,9.10
2022-12-03T06:38:10.055Z,9.13
2022-12-03T06:40:38.311Z,8.48
2022-12-03T06:43:05.988Z,9.93
2022-12-03T06:45:33.411Z,9.15
2022-12-03T06:48:00.838Z,8.65
2022-12-03T06:50:28.327Z,9.18
2022-12-03T06:52:55.808Z,9.20
2022-12-03T06:55:23.276Z,8.77
2022-12-03T06:57:50.689Z,9.35
2022-12-03T07:00:18.678Z,9.43
2022-12-03T07:02:46.199Z,9.73
2022-12-03T07:05:14.170Z,9.82
2022-12-03T07:07:41.665Z,8.90
2022-12-03T07:10:09.840Z,8.82
2022-12-03T07:12:37.906Z,9.07
2022-12-03T07:15:05.816Z,8.77
2022-12-03T07:17:33.307Z,8.82
2022-12-03T07:20:00.742Z,9.05
2022-12-03T07:22:28.268Z,9.07
2022-12-03T07:24:55.998Z,8.75
2022-12-03T07:27:23.756Z,8.88
2022-12-03T07:29:51.670Z,8.93
2022-12-03T07:32:19.137Z,8.73
2022-12-03T07:34:46.652Z,8.80
2022-12-03T07:37:17.490Z,8.65
2022-12-03T07:39:47.631Z,8.75
2022-12-03T07:42:15.068Z,9.07
2022-12-03T07:44:42.466Z,8.82
2022-12-03T07:47:10.070Z,8.70
2022-12-03T07:49:37.535Z,8.95
2022-12-03T07:52:20.056Z,8.57
2022-12-03T07:54:47.506Z,8.48
2022-12-03T07:57:14.893Z,8.93
2022-12-03T07:59:42.362Z,9.30
2022-12-03T08:02:10.004Z,8.88
2022-12-03T08:04:37.613Z,8.95
2022-12-03T08:07:06.041Z,8.30
2022-12-03T08:09:33.475Z,9.30
2022-12-03T08:12:06.342Z,9.00
2022-12-03T08:14:33.797Z,8.93
2022-12-03T08:17:01.310Z,8.55
2022-12-03T08:19:28.716Z,8.90
2022-12-03T08:22:01.023Z,8.98
2022-12-03T08:24:30.420Z,8.57
2022-12-03T08:26:57.941Z,8.48
2022-12-03T08:29:25.424Z,8.80
2022-12-03T08:31:57.165Z,8.88
2022-12-03T08:34:27.795Z,8.63
2022-12-03T08:37:05.884Z,8.55
2022-12-03T08:39:39.476Z,9.00
2022-12-03T08:42:34.038Z,8.13
2022-12-03T08:45:23.289Z,8.77
2022-12-03T08:47:50.764Z,8.52
2022-12-03T08:50:31.400Z,8.70
2022-12-03T08:53:35.494Z,9.05
2022-12-03T08:56:19.040Z,8.00
2022-12-03T08:58:48.894Z,8.48
2022-12-03T09:01:28.910Z,8.18
2022-12-03T09:04:02.347Z,7.97
2022-12-03T09:06:29.932Z,8.27
2022-12-03T09:08:58.642Z,7.72
2022-12-03T09:11:27.555Z,8.95
2022-12-03T09:13:55.046Z,8.55
2022-12-03T09:16:22.573Z,7.93
2022-12-03T09:18:50.009Z,8.07
2022-12-03T09:21:17.543Z,7.63
2022-12-03T09:23:44.969Z,7.43
2022-12-03T09:26:12.408Z,7.60
2022-12-03T09:28:39.908Z,7.88
2022-12-03T09:31:07.408Z,16.05
2022-12-03T09:33:34.927Z,23.08
2022-12-03T09:36:02.449Z,55.85
2022-12-03T09:38:29.949Z,49.42
2022-12-03T09:40:57.398Z,41.40
2022-12-03T09:43:33.502Z,34.42
2022-12-03T09:46:12.444Z,34.85
2022-12-03T09:48:40.628Z,26.58
2022-12-03T09:51:10.276Z,27.50
2022-12-03T09:53:41.438Z,26.17
2022-12-03T09:56:21.019Z,23.40
2022-12-03T09:58:49.553Z,22.02
2022-12-03T10:01:18.068Z,21.48
2022-12-03T10:03:51.077Z,20.30
2022-12-03T10:06:22.188Z,18.27
2022-12-03T10:08:53.553Z,18.75
2022-12-03T10:11:24.360Z,17.08
2022-12-03T10:13:55.307Z,17.67
2022-12-03T10:16:23.298Z,16.20
2022-12-03T10:18:56.247Z,15.63
2022-12-03T10:21:26.416Z,15.20
2022-12-03T10:24:26.663Z,15.13
2022-12-03T10:26:59.846Z,16.13
2022-12-03T10:29:34.064Z,14.77
2022-12-03T10:32:06.578Z,14.93
2022-12-03T10:34:37.050Z,14.82
2022-12-03T10:37:09.130Z,14.40
2022-12-03T10:40:08.444Z,13.45
2022-12-03T10:42:38.568Z,12.35
2022-12-03T10:45:20.993Z,12.93
2022-12-03T10:48:12.106Z,12.27
2022-12-03T10:51:04.694Z,11.35
2022-12-03T10:53:34.642Z,11.93
2022-12-03T10:56:05.782Z,11.90
2022-12-03T10:58:40.504Z,11.75
2022-12-03T11:01:17.434Z,11.60
2022-12-03T11:03:45.367Z,11.27
2022-12-03T11:06:19.223Z,10.82
2022-12-03T11:08:58.483Z,11.30
2022-12-03T11:11:31.371Z,10.52
2022-12-03T11:14:03.687Z,10.32
2022-12-03T11:16:39.864Z,10.40
2022-12-03T11:19:13.203Z,10.27
2022-12-03T11:22:05.374Z,9.98
2022-12-03T11:24:34.813Z,10.30
2022-12-03T11:27:02.260Z,9.82
2022-12-03T11:29:58.879Z,9.27
2022-12-03T11:32:38.341Z,9.48
2022-12-03T11:35:27.387Z,9.52
2022-12-03T11:37:54.848Z,9.35
2022-12-03T11:40:22.321Z,8.50
2022-12-03T11:42:49.991Z,8.65
2022-12-03T11:45:38.005Z,9.05
2022-12-03T11:48:12.400Z,9.15
2022-12-03T11:50:53.499Z,9.05
2022-12-03T11:53:26.004Z,8.60
2022-12-03T11:56:11.183Z,8.57
2022-12-03T11:58:42.402Z,8.10
2022-12-03T12:01:10.058Z,8.23
2022-12-03T12:03:47.874Z,8.07
2022-12-03T12:06:18.552Z,8.18
2022-12-03T12:08:51.977Z,8.07
2022-12-03T12:11:34.027Z,8.70
2022-12-03T12:14:06.762Z,7.65
2022-12-03T12:16:55.078Z,7.78
2022-12-03T12:19:42.562Z,8.23
2022-12-03T12:22:20.452Z,8.00
2022-12-03T12:24:57.960Z,7.40
2022-12-03T12:27:49.351Z,7.57
2022-12-03T12:30:19.759Z,8.00
2022-12-03T12:33:28.898Z,7.43
2022-12-03T12:35:56.365Z,8.00
2022-12-03T12:38:24.339Z,7.35
2022-12-03T12:40:52.649Z,7.55
2022-12-03T12:43:24.982Z,7.88
2022-12-03T12:45:55.033Z,7.00
2022-12-03T12:48:28.285Z,7.28
2022-12-03T12:51:06.161Z,6.90
2022-12-03T12:53:35.905Z,6.93
2022-12-03T12:56:21.289Z,7.20
2022-12-03T12:58:48.962Z,7.30
2022-12-03T13:01:26.435Z,7.07
2022-12-03T13:03:54.784Z,6.63
2022-12-03T13:06:27.817Z,6.72
2022-12-03T13:08:56.287Z,7.28
2022-12-03T13:11:41.967Z,6.60
2022-12-03T13:14:16.979Z,6.55
2022-12-03T13:16:45.684Z,6.38
2022-12-03T13:19:22.894Z,6.55
2022-12-03T13:21:52.490Z,6.65
2022-12-03T13:24:53.027Z,6.47
2022-12-03T13:27:20.541Z,6.55
2022-12-03T13:30:05.181Z,5.97
2022-12-03T13:32:36.448Z,6.45
2022-12-03T13:35:18.459Z,5.97
2022-12-03T13:37:45.954Z,6.35
2022-12-03T13:40:19.341Z,5.32
2022-12-03T13:42:46.864Z,6.18
2022-12-03T13:45:14.228Z,6.55
2022-12-03T13:47:44.347Z,6.68
2022-12-03T13:50:22.275Z,6.20
2022-12-03T13:52:49.886Z,5.85
2022-12-03T13:55:25.473Z,6.00
2022-12-03T13:57:53.666Z,6.28
2022-12-03T14:00:21.838Z,6.10
2022-12-03T14:02:49.512Z,5.70
2022-12-03T14:05:17.343Z,6.00
2022-12-03T14:07:44.911Z,5.90
2022-12-03T14:10:13.265Z,6.03
2022-12-03T14:12:40.775Z,5.55
2022-12-03T14:15:10.767Z,5.60
2022-12-03T14:17:38.225Z,5.38
2022-12-03T14:20:06.497Z,5.20
2022-12-03T14:22:37.704Z,5.28
2022-12-03T14:25:06.555Z,5.28
2022-12-03T14:27:34.424Z,5.35
2022-12-03T14:30:02.086Z,5.60
2022-12-03T14:32:29.634Z,5.55
2022-12-03T14:34:57.094Z,5.85
2022-12-03T14:37:24.556Z,5.72
2022-12-03T14:39:52.774Z,5.65
2022-12-03T14:42:20.497Z,5.72
2022-12-03T14:44:50.227Z,5.90
2022-12-03T14:47:20.074Z,6.25
2022-12-03T14:49:47.601Z,6.40
2022-12-03T14:52:15.447Z,6.15
2022-12-03T14:54:43.444Z,5.88
2022-12-03T14:57:15.385Z,5.43
2022-12-03T14:59:44.304Z,5.70
2022-12-03T15:02:12.290Z,5.95
2022-12-03T15:04:41.256Z,6.30
2022-12-03T15:07:09.478Z,5.38
2022-12-03T15:09:37.167Z,5.68
2022-12-03T15:12:05.028Z,5.65
2022-12-03T15:14:32.592Z,5.75
2022-12-03T15:17:00.078Z,5.38
2022-12-03T15:19:27.633Z,5.47
2022-12-03T15:21:55.179Z,6.03
2022-12-03T15:24:22.691Z,6.15
2022-12-03T15:26:53.380Z,6.43
2022-12-03T15:29:21.258Z,6.30
2022-12-03T15:31:48.766Z,6.25
2022-12-03T15:34:22.149Z,6.05
2022-12-03T15:36:50.584Z,6.07
2022-12-03T15:39:18.017Z,6.38
2022-12-03T15:41:45.433Z,6.28
2022-12-03T15:44:12.875Z,6.35
2022-12-03T15:46:40.319Z,5.85
2022-12-03T15:49:07.784Z,5.68
2022-12-03T15:51:35.245Z,6.13
2022-12-03T15:54:02.666Z,5.63
2022-12-03T15:56:30.085Z,6.22
2022-12-03T15:58:57.532Z,6.07
2022-12-03T16:01:25.093Z,6.30
2022-12-03T16:03:52.631Z,6.05
2022-12-03T16:06:20.081Z,6.32
2022-12-03T16:08:48.213Z,6.70
2022-12-03T16:11:15.957Z,5.85
2022-12-03T16:13:43.507Z,6.20
2022-12-03T16:16:11.133Z,5.90
2022-12-03T16:18:38.683Z,6.28
2022-12-03T16:21:06.201Z,6.05
2022-12-03T16:23:33.702Z,6.47
2022-12-03T16:26:01.117Z,6.45
2022-12-03T16:28:28.553Z,6.50
2022-12-03T16:30:56.067Z,6.28
2022-12-03T16:33:27.450Z,6.07
2022-12-03T16:35:55.589Z,6.65
2022-12-03T16:38:23.194Z,7.25
2022-12-03T16:40:50.628Z,6.93
2022-12-03T16:43:18.523Z,6.57
2022-12-03T16:45:45.901Z,7.00
2022-12-03T16:48:13.378Z,7.05
2022-12-03T16:50:40.861Z,7.13
2022-12-03T16:53:08.310Z,6.60
2022-12-03T16:55:35.734Z,7.97
2022-12-03T16:58:03.171Z,7.72
2022-12-03T17:00:30.697Z,7.38
2022-12-03T17:02:58.446Z,7.28
2022-12-03T17:05:25.915Z,7.38
2022-12-03T17:07:53.752Z,7.60
2022-12-03T17:10:21.295Z,8.05
2022-12-03T17:13:08.888Z,7.80
2022-12-03T17:15:36.541Z,7.88
2022-12-03T17:18:04.281Z,7.63
2022-12-03T17:20:32.623Z,16.35
2022-12-03T17:23:01.061Z,48.72
2022-12-03T17:25:28.697Z,47.10
2022-12-03T17:27:56.288Z,53.13
2022-12-03T17:30:23.753Z,51.15
2022-12-03T17:32:51.268Z,46.25
2022-12-03T17:35:19.423Z,44.58
2022-12-03T17:37:46.911Z,40.20
2022-12-03T17:40:16.991Z,34.25
2022-12-03T17:42:44.569Z,36.40
2022-12-03T17:45:13.044Z,31.90
2022-12-03T17:47:40.538Z,33.00
2022-12-03T17:50:08.580Z,29.73
2022-12-03T17:52:35.986Z,29.83
2022-12-03T17:55:15.639Z,27.95
2022-12-03T17:57:43.681Z,26.23
2022-12-03T18:00:11.722Z,25.90
2022-12-03T18:02:42.542Z,25.80
2022-12-03T18:05:10.151Z,25.48
2022-12-03T18:07:37.692Z,23.25
2022-12-03T18:10:05.920Z,21.80
2022-12-03T18:12:33.734Z,23.00
2022-12-03T18:15:01.160Z,21.30
2022-12-03T18:17:28.676Z,20.95
2022-12-03T18:19:56.730Z,21.67
2022-12-03T18:22:24.533Z,20.55
2022-12-03T18:24:52.260Z,20.05
2022-12-03T18:27:23.433Z,18.73
2022-12-03T18:29:51.539Z,19.25
2022-12-03T18:32:29.411Z,18.65
2022-12-03T18:34:58.028Z,18.95
2022-12-03T18:37:29.825Z,18.13
2022-12-03T18:39:58.485Z,18.05
2022-12-03T18:42:26.644Z,18.33
2022-12-03T18:44:56.199Z,18.13
2022-12-03T18:47:28.140Z,16.55
2022-12-03T18:49:56.547Z,16.42
2022-12-03T18:52:25.136Z,16.33
2022-12-03T18:54:53.147Z,16.00
2022-12-03T18:57:20.603Z,15.45
2022-12-03T18:59:48.079Z,16.23
2022-12-03T19:02:45.885Z,15.77
2022-12-03T19:05:07.595Z,23.27
2022-12-03T19:07:35.226Z,16.20
2022-12-03T19:10:03.165Z,15.23
2022-12-03T19:12:31.263Z,15.25
2022-12-03T19:14:58.695Z,14.93
2022-12-03T19:17:27.283Z,14.07
2022-12-03T19:19:55.324Z,14.05
2022-12-03T19:22:23.648Z,14.63
2022-12-03T19:24:51.183Z,14.55
2022-12-03T19:27:19.268Z,14.02
2022-12-03T19:29:49.753Z,14.10
2022-12-03T19:32:17.591Z,13.48
2022-12-03T19:34:45.125Z,13.98
2022-12-03T19:37:12.640Z,13.52
2022-12-03T19:39:40.090Z,13.32
2022-12-03T19:42:07.741Z,15.15
2022-12-03T19:44:35.200Z,13.27
2022-12-03T19:47:02.712Z,12.95
2022-12-03T19:49:30.167Z,13.52
2022-12-03T19:51:57.558Z,13.70
2022-12-03T19:54:25.121Z,13.13
2022-12-03T19:56:52.654Z,12.43
2022-12-03T19:59:20.212Z,12.32
2022-12-03T20:01:47.804Z,19.45
2022-12-03T20:04:15.423Z,29.42
2022-12-03T20:06:42.920Z,63.50
2022-12-03T20:09:13.038Z,46.28
2022-12-03T20:11:41.561Z,58.53
2022-12-03T20:14:12.917Z,47.03
2022-12-03T20:16:41.179Z,36.90
2022-12-03T20:19:12.174Z,38.25
2022-12-03T20:21:40.337Z,35.97
2022-12-03T20:24:09.901Z,33.63
2022-12-03T20:26:37.322Z,31.50
2022-12-03T20:29:04.733Z,29.63
2022-12-03T20:31:32.521Z,28.42
2022-12-03T20:34:02.118Z,28.00
2022-12-03T20:36:31.780Z,26.30
2022-12-03T20:39:02.175Z,25.70
2022-12-03T20:41:29.913Z,25.98
2022-12-03T20:43:57.372Z,23.38
2022-12-03T20:46:28.851Z,22.05
2022-12-03T20:48:57.012Z,20.40
2022-12-03T20:51:27.453Z,21.13
2022-12-03T20:53:55.616Z,19.67
2022-12-03T20:56:31.250Z,19.23
2022-12-03T20:59:07.504Z,18.75
2022-12-03T21:01:36.149Z,17.55
2022-12-03T21:04:05.472Z,16.90
2022-12-03T21:06:35.856Z,17.65
2022-12-03T21:09:06.512Z,16.25
2022-12-03T21:11:35.869Z,16.55
2022-12-03T21:14:04.181Z,16.73
2022-12-03T21:19:23.357Z,16.33
2022-12-03T21:21:50.890Z,15.88
2022-12-03T21:24:18.407Z,14.82
2022-12-03T21:26:46.069Z,14.52
2022-12-03T21:29:13.520Z,15.27
2022-12-03T21:31:40.981Z,14.75
2022-12-03T21:34:08.720Z,14.18
2022-12-03T21:36:36.444Z,13.95
2022-12-03T21:39:05.535Z,13.95
2022-12-03T21:41:35.104Z,13.63
2022-12-03T21:44:03.863Z,14.75
2022-12-03T21:47:11.088Z,14.60
2022-12-03T21:49:20.254Z,14.35
2022-12-03T21:51:47.737Z,13.65
2022-12-03T21:54:15.639Z,13.30
2022-12-03T21:56:43.068Z,13.07
2022-12-03T21:59:10.505Z,13.63
2022-12-03T22:01:39.680Z,13.55
2022-12-03T22:04:10.222Z,12.70
2022-12-03T22:06:37.712Z,12.85
2022-12-03T22:09:05.137Z,12.60
2022-12-03T22:11:32.656Z,12.88
2022-12-03T22:14:00.256Z,12.80
2022-12-03T22:16:27.789Z,12.80
2022-12-03T22:18:55.237Z,12.82
2022-12-03T22:21:24.539Z,13.15
2022-12-03T22:23:52.169Z,13.20
2022-12-03T22:26:19.958Z,12.68
2022-12-03T22:28:49.041Z,13.02
2022-12-03T22:31:18.101Z,13.50
2022-12-03T22:33:48.377Z,12.75
2022-12-03T22:36:21.013Z,12.60
2022-12-03T22:38:50.958Z,13.73
2022-12-03T22:41:19.516Z,14.18
2022-12-03T22:43:48.313Z,13.30
2022-12-03T22:46:16.675Z,13.10
2022-12-03T22:48:46.429Z,13.60
2022-12-03T22:51:19.631Z,13.30
2022-12-03T22:53:47.602Z,12.70
2022-12-03T22:56:16.004Z,13.90
2022-12-03T22:58:43.416Z,12.35
2022-12-03T23:01:24.032Z,11.73
2022-12-03T23:03:51.808Z,12.27
2022-12-03T23:06:19.810Z,12.23
2022-12-03T23:08:47.933Z,12.60
2022-12-03T23:11:15.916Z,12.63
2022-12-03T23:13:43.581Z,11.75
2022-12-03T23:16:16.615Z,12.68
2022-12-03T23:18:44.913Z,12.02
2022-12-03T23:21:28.605Z,11.05
2022-12-03T23:24:01.662Z,11.95
2022-12-03T23:26:29.227Z,11.80
2022-12-03T23:28:56.681Z,11.82
2022-12-03T23:31:30.054Z,10.80
2022-12-03T23:33:58.939Z,11.30
2022-12-03T23:36:30.576Z,11.05
2022-12-03T23:38:58.234Z,11.20
2022-12-03T23:41:26.339Z,10.70
2022-12-03T23:43:54.253Z,11.15
2022-12-03T23:46:24.906Z,11.05
2022-12-03T23:48:53.045Z,11.20
2022-12-03T23:51:24.087Z,11.27
2022-12-03T23:53:53.361Z,10.15
2022-12-03T23:56:24.504Z,11.40
2022-12-03T23:58:52.587Z,10.75
